Latest Weather Observations for Mount Crawford

IDS60801

Issued at 12:05 pm CDT Thursday 27 November 2014 (issued every 30 minutes, with the page automatically refreshed every 10 minutes)

About weather observations | Map of weather stations | Latest weather observations for SA | Other Formats
Station Details ID: 023878 Name: MT CRAWFORD AWS Lat: -34.73 Lon: 138.93 Height: 525.0 m
Data from the previous 72 hours. | See also: Recent months at Mount Crawford
Date/Time
CDT
Temp
°C
App
Temp
°C
Dew
Point
Rel
Hum
%
Delta-T
°C
Wind Press
QNH
hPa
Press
MSL
hPa
Rain
since 9 am
mm
Dir
 
Spd
km/h
Gust
km/h
Spd
kts
Gust
kts
27/12:00pm 19.4 15.8 9.9 54 5.2 ESE 19 28 10 15 1023.4 1022.1 0.0
27/11:30am 18.9 16.5 9.9 56 4.9 ESE 13 20 7 11 1023.6 1022.3 0.0
27/11:00am 17.9 14.0 9.5 58 4.5 E 20 32 11 17 1023.7 1022.4 0.0
27/10:30am 17.1 13.2 9.5 61 4.1 E 20 28 11 15 1023.8 1022.5 0.0
27/10:00am 15.9 11.7 9.8 67 3.3 E 22 32 12 17 1023.9 1022.6 0.0
27/09:30am 15.7 10.8 9.8 68 3.1 E 26 35 14 19 1024.0 1022.7 0.0
27/09:00am 14.9 10.0 9.9 72 2.7 E 26 37 14 20 1024.0 1022.7 0.0
27/08:30am 13.4 8.0 9.5 77 2.0 E 28 43 15 23 1023.8 1022.5 0.0
27/08:00am 12.7 7.1 10.1 84 1.4 E 30 41 16 22 1023.8 1022.5 0.0
27/07:30am 11.3 5.5 9.6 89 0.9 E 30 37 16 20 1023.6 1022.3 0.0
27/07:00am 10.0 4.1 9.2 95 0.4 E 30 39 16 21 1023.3 1022.0 0.0
27/06:30am 9.4 3.8 8.6 95 0.4 ESE 28 37 15 20 1023.2 1021.9 0.0
27/06:00am 9.1 3.5 8.6 97 0.2 ESE 28 37 15 20 1023.0 1021.8 0.0
27/05:30am 8.9 3.7 8.8 99 0.1 ESE 26 32 14 17 1022.8 1021.6 0.0
27/05:00am 9.0 3.8 8.9 99 0.1 ESE 26 35 14 19 1022.6 1021.3 0.0
27/04:30am 9.3 3.8 9.2 99 0.1 ESE 28 37 15 20 1022.4 1021.1 0.0
27/04:00am 9.7 3.9 9.6 99 0.1 ESE 30 39 16 21 1022.2 1020.9 0.0
27/03:30am 10.5 5.4 10.5 100 0.0 SE 28 37 15 20 1022.1 1020.8 0.0
27/03:00am 10.7 6.0 10.7 100 0.0 ESE 26 35 14 19 1022.2 1020.9 0.0
27/02:30am 10.7 5.6 10.7 100 0.0 SE 28 39 15 21 1022.3 1021.0 0.0
27/02:00am 10.6 5.1 10.6 100 0.0 SE 30 37 16 20 1022.4 1021.1 0.0
27/01:30am 10.7 5.6 10.5 99 0.1 SE 28 37 15 20 1022.4 1021.1 0.0
27/01:00am 10.7 5.2 10.5 99 0.1 SE 30 39 16 21 1022.6 1021.3 0.0
27/12:30am 10.7 4.8 10.5 99 0.1 SE 32 44 17 24 1022.6 1021.3 0.0
27/12:00am 10.7 5.2 10.5 99 0.1 SE 30 41 16 22 1022.8 1021.6 0.0
 
Date/Time
CDT
Temp
°C
App
Temp
°C
Dew
Point
Rel
Hum
%
Delta-T
°C
Wind Press
QNH
hPa
Press
MSL
hPa
Rain
since 9 am
mm
Dir
 
Spd
km/h
Gust
km/h
Spd
kts
Gust
kts
26/11:30pm 10.7 4.6 10.5 99 0.1 SE 33 46 18 25 1022.9 1021.7 0.0
26/11:00pm 10.8 4.9 10.6 99 0.1 SE 32 39 17 21 1022.9 1021.7 0.0
26/10:30pm 11.1 5.0 10.6 97 0.3 SE 33 43 18 23 1023.0 1021.8 0.0
26/10:00pm 11.2 5.3 10.4 95 0.4 SE 32 44 17 24 1022.8 1021.6 0.0
26/09:30pm 11.2 5.3 10.3 94 0.5 SE 32 39 17 21 1022.7 1021.4 0.0
26/09:00pm 11.5 6.3 10.1 91 0.7 SE 28 41 15 22 1022.6 1021.3 0.0
26/08:30pm 12.0 6.6 9.4 84 1.3 SE 28 37 15 20 1022.5 1021.2 0.0
26/08:00pm 12.8 7.6 8.7 76 2.1 ESE 26 37 14 20 1022.4 1021.1 0.0
26/07:30pm 13.8 8.9 8.4 70 2.8 SE 24 35 13 19 1022.0 1020.7 0.0
26/07:00pm 14.9 8.8 8.2 64 3.5 SE 30 44 16 24 1021.8 1020.5 0.0
26/06:30pm 15.7 10.2 7.5 58 4.2 SE 26 39 14 21 1021.8 1020.5 0.0
26/06:00pm 16.7 11.2 7.4 54 4.8 SE 26 35 14 19 1021.5 1020.2 0.0
26/05:30pm 17.2 11.6 7.3 52 5.1 SE 26 37 14 20 1021.4 1020.1 0.0
26/05:00pm 19.5 15.1 7.3 45 6.4 SE 20 33 11 18 1021.4 1020.1 0.0
26/04:30pm 19.1 13.8 6.9 45 6.3 SSE 24 32 13 17 1021.4 1020.1 0.0
26/04:00pm 20.7 16.3 7.3 42 7.0 SE 20 28 11 15 1021.3 1020.0 0.0
26/03:30pm 20.4 16.0 4.8 36 7.8 SSE 17 28 9 15 1021.5 1020.2 0.0
26/03:00pm 20.8 17.6 6.7 40 7.3 S 13 20 7 11 1021.7 1020.4 0.0
26/02:30pm 19.9 16.4 7.0 43 6.7 SSE 15 26 8 14 1022.1 1020.8 0.0
26/02:00pm 19.8 17.1 7.2 44 6.6 SE 11 24 6 13 1022.3 1021.0 0.0
26/01:30pm 18.8 15.9 6.6 45 6.2 S 11 24 6 13 1022.5 1021.2 0.0
26/01:00pm 18.7 16.2 6.5 45 6.2 SE 9 17 5 9 1022.9 1021.7 0.0
26/12:30pm 17.8 15.2 6.0 46 5.9 S 9 22 5 12 1023.2 1021.9 0.0
26/12:00pm 16.8 13.9 6.3 50 5.3 S 11 17 6 9 1023.7 1022.4 0.0
26/11:30am 16.9 14.0 6.7 51 5.2 NE 11 20 6 11 1023.9 1022.6 0.0
26/11:00am 15.8 13.1 7.3 57 4.3 ESE 11 17 6 9 1023.9 1022.6 0.0
26/10:30am 14.8 12.3 6.4 57 4.2 ESE 9 17 5 9 1024.0 1022.7 0.0
26/10:00am 14.4 10.8 6.7 60 3.8 ESE 15 20 8 11 1023.8 1022.5 0.0
26/09:30am 13.5 10.1 7.5 67 3.0 E 15 22 8 12 1023.7 1022.4 0.0
26/09:00am 13.2 9.4 7.4 68 2.9 E 17 26 9 14 1023.5 1022.2 0.0
26/08:30am 12.2 8.4 7.7 74 2.2 ESE 17 22 9 12 1023.2 1021.9 0.0
26/08:00am 10.7 6.5 7.4 80 1.6 E 19 26 10 14 1022.6 1021.3 0.0
26/07:30am 9.7 5.3 7.6 87 1.0 ESE 20 28 11 15 1022.3 1021.0 0.0
26/07:00am 9.5 5.3 7.4 87 1.0 ESE 19 24 10 13 1022.1 1020.8 0.0
26/06:30am 8.7 4.2 7.0 89 0.8 ESE 20 26 11 14 1021.9 1020.6 0.0
26/06:00am 7.5 3.1 6.6 94 0.4 ESE 19 24 10 13 1021.5 1020.2 0.0
26/05:30am 8.3 3.7 6.4 88 0.9 SE 20 24 11 13 1021.4 1020.1 0.0
26/05:00am 8.1 3.7 6.7 91 0.7 SE 19 24 10 13 1021.2 1019.9 0.0
26/04:30am 8.4 3.9 7.0 91 0.7 SE 20 24 11 13 1021.2 1019.9 0.0
26/04:00am 8.4 4.0 7.2 92 0.6 SSE 20 26 11 14 1021.2 1019.9 0.0
26/03:30am 8.4 4.2 7.3 93 0.5 SE 19 24 10 13 1021.0 1019.7 0.0
26/03:00am 8.4 4.2 7.6 95 0.4 SE 19 24 10 13 1021.2 1019.9 0.0
26/02:30am 8.6 4.5 7.7 94 0.4 SE 19 24 10 13 1021.4 1020.1 0.0
26/02:00am 8.8 3.7 7.6 92 0.6 SSE 24 30 13 16 1021.4 1020.1 0.0
26/01:30am 8.7 4.0 7.8 94 0.4 SE 22 28 12 15 1021.5 1020.2 0.0
26/01:00am 8.7 4.3 7.6 93 0.5 SE 20 26 11 14 1021.9 1020.6 0.0
26/12:30am 9.0 4.6 7.6 91 0.7 SSE 20 26 11 14 1022.0 1020.7 0.0
26/12:00am 9.2 4.5 7.6 90 0.8 SSE 22 28 12 15 1022.3 1021.0 0.0
 
Date/Time
CDT
Temp
°C
App
Temp
°C
Dew
Point
Rel
Hum
%
Delta-T
°C
Wind Press
QNH
hPa
Press
MSL
hPa
Rain
since 9 am
mm
Dir
 
Spd
km/h
Gust
km/h
Spd
kts
Gust
kts
25/11:30pm 9.3 4.6 7.7 90 0.8 SSE 22 28 12 15 1022.5 1021.2 0.0
25/11:00pm 9.5 4.8 7.8 89 0.8 SSE 22 32 12 17 1022.5 1021.2 0.0
25/10:30pm 9.7 5.0 7.6 87 1.0 SSE 22 28 12 15 1022.6 1021.3 0.0
25/10:00pm 10.1 5.8 7.7 85 1.2 SSE 20 28 11 15 1022.7 1021.4 0.0
25/09:30pm 10.5 5.8 7.7 83 1.4 SSE 22 30 12 16 1022.6 1021.3 0.0
25/09:00pm 11.0 6.7 7.9 81 1.5 SSE 20 30 11 16 1022.5 1021.2 0.0
25/08:30pm 11.6 7.4 8.3 80 1.7 SSE 20 28 11 15 1022.4 1021.1 0.0
25/08:00pm 12.4 8.7 7.9 74 2.3 SE 17 26 9 14 1022.1 1020.8 0.0
25/07:30pm 14.5 11.5 7.5 63 3.5 S 13 20 7 11 1022.0 1020.7 0.0
25/07:00pm 16.2 12.2 4.9 47 5.5 WSW 15 20 8 11 1021.6 1020.3 0.0
25/06:30pm 17.4 12.4 3.7 40 6.5 W 19 24 10 13 1021.3 1020.0 0.0
25/06:00pm 18.1 14.6 3.6 38 7.0 W 11 20 6 11 1020.9 1019.6 0.0
25/05:30pm 18.1 13.6 2.4 35 7.4 W 15 24 8 13 1021.0 1019.7 0.0
25/05:00pm 18.0 14.0 3.1 37 7.1 SW 13 22 7 12 1021.2 1019.9 0.0
25/04:30pm 17.6 12.6 3.5 39 6.7 WSW 19 28 10 15 1021.3 1020.0 0.0
25/04:00pm 18.6 14.3 3.3 36 7.3 WSW 15 24 8 13 1021.6 1020.3 0.0
25/03:30pm 17.5 12.7 4.5 42 6.3 W 19 32 10 17 1021.6 1020.3 0.0
25/03:00pm 17.3 12.4 4.9 44 6.1 WSW 20 26 11 14 1021.7 1020.4 0.0
25/02:30pm 17.4 14.5 4.7 43 6.2 SSW 9 20 5 11 1021.9 1020.6 0.0
25/02:00pm 17.3 12.6 6.2 48 5.6 WSW 20 26 11 14 1022.1 1020.8 0.0
25/01:30pm 17.0 13.2 5.9 48 5.5 W 15 22 8 12 1022.2 1020.9 0.0
25/01:00pm 15.8 12.1 4.2 46 5.6 SW 13 20 7 11 1022.4 1021.1 0.0
25/12:30pm 14.9 10.9 6.5 57 4.2 SW 17 28 9 15 1022.5 1021.2 0.0
25/12:00pm 13.9 9.8 6.3 60 3.7 W 17 26 9 14 1022.7 1021.4 0.0
25/11:30am 14.9 11.6 6.2 56 4.3 WSW 13 22 7 12 1022.7 1021.4 0.0
25/11:00am 14.7 10.9 7.5 62 3.7 W 17 24 9 13 1022.8 1021.6 0.0
25/10:30am 12.7 9.9 7.0 68 2.8 WNW 11 17 6 9 1022.9 1021.7 0.0
25/10:00am 12.9 10.7 7.8 71 2.6 W 9 17 5 9 1022.7 1021.4 0.0
25/09:30am 12.6 8.7 6.9 68 2.8 W 17 26 9 14 1022.6 1021.3 0.0
25/09:00am 12.6 10.5 8.3 75 2.2 W 9 13 5 7 1022.5 1021.2 0.0
25/08:30am 11.2 8.7 8.2 82 1.5 W 11 13 6 7 1022.4 1021.1 0.0
25/08:00am 11.4 9.3 8.3 81 1.6 SW 9 13 5 7 1021.9 1020.6 0.0
25/07:30am 10.6 8.0 7.8 83 1.4 SW 11 17 6 9 1021.7 1020.4 0.0
25/07:00am 9.7 7.0 7.3 85 1.2 SW 11 17 6 9 1021.5 1020.2 0.0
25/06:30am 8.7 5.6 7.2 90 0.7 SW 13 17 7 9 1021.2 1019.9 0.0
25/06:00am 8.3 5.1 6.9 91 0.7 SW 13 19 7 10 1020.6 1019.3 0.0
25/05:30am 8.5 5.3 7.0 90 0.7 SW 13 19 7 10 1020.3 1019.0 0.0
25/05:00am 8.2 4.6 6.7 90 0.7 SW 15 19 8 10 1019.9 1018.6 0.0
25/04:30am 8.0 4.7 6.5 90 0.7 SW 13 17 7 9 1019.7 1018.4 0.0
25/04:00am 8.0 4.7 6.3 89 0.8 SW 13 17 7 9 1019.3 1017.9 0.0
25/03:30am 8.1 4.4 6.4 89 0.8 SW 15 22 8 12 1019.2 1017.8 0.0
25/03:00am 8.3 3.9 6.4 88 0.9 SSW 19 24 10 13 1019.2 1017.8 0.0
25/02:30am 8.6 4.2 6.4 86 1.0 SSW 19 24 10 13 1019.3 1017.9 0.0
25/02:00am 8.7 4.6 6.2 84 1.2 SSW 17 24 9 13 1019.5 1018.2 0.0
25/01:30am 8.4 4.6 6.0 85 1.1 SSW 15 19 8 10 1019.5 1018.2 0.0
25/01:00am 8.7 4.6 6.0 83 1.3 SSW 17 22 9 12 1019.5 1018.2 0.0
25/12:30am 8.8 4.2 5.7 81 1.4 SSW 19 28 10 15 1019.4 1018.0 0.0
25/12:00am 9.0 4.2 5.6 79 1.6 SSW 20 32 11 17 1019.4 1018.0 0.0
 
Date/Time
CDT
Temp
°C
App
Temp
°C
Dew
Point
Rel
Hum
%
Delta-T
°C
Wind Press
QNH
hPa
Press
MSL
hPa
Rain
since 9 am
mm
Dir
 
Spd
km/h
Gust
km/h
Spd
kts
Gust
kts
24/11:30pm 9.2 4.1 5.8 79 1.6 SSW 22 35 12 19 1019.2 1017.8 0.0
24/11:00pm 9.5 4.8 6.0 79 1.7 SSW 20 28 11 15 1019.0 1017.7 0.0
24/10:30pm 9.9 5.2 6.2 78 1.8 SSW 20 26 11 14 1018.8 1017.5 0.0
24/10:00pm 10.6 6.5 6.2 74 2.1 SW 17 24 9 13 1018.4 1017.1 0.0
24/09:30pm 10.7 7.8 8.1 84 1.3 SW 13 20 7 11 1018.0 1016.7 0.0
24/09:00pm 11.3 7.1 8.3 82 1.5 WSW 20 28 11 15 1017.7 1016.3 0.0
24/08:30pm 11.8 7.6 8.3 79 1.8 WSW 20 32 11 17 1017.3 1015.9 0.0
24/08:00pm 12.1 7.4 7.8 75 2.2 WSW 22 35 12 19 1016.8 1015.5 0.0
24/07:30pm 12.6 7.4 7.3 70 2.6 WSW 24 35 13 19 1016.5 1015.2 0.0
24/07:00pm 14.4 10.1 7.7 64 3.4 SW 20 35 11 19 1016.0 1014.6 0.0
24/06:30pm 14.2 9.1 7.5 64 3.4 SW 24 43 13 23 1015.5 1014.1 0.0
24/06:00pm 14.4 7.9 6.5 59 3.9 WSW 30 44 16 24 1015.2 1013.8 0.0
24/05:31pm 15.2 8.9 7.5 60 3.9 WSW 30 48 16 26 1015.1 1013.7 0.0
24/05:30pm 15.0 8.3 7.5 61 3.8 WSW 32 48 17 26 1015.1 1013.7 0.0
24/05:00pm 15.2 8.8 7.0 58 4.1 WSW 30 44 16 24 1014.6 1013.3 0.0
24/04:38pm 17.5 10.9 6.1 47 5.7 WSW 30 48 16 26 1014.3 1012.9 0.0
24/04:30pm 16.8 10.2 6.0 49 5.4 WSW 30 46 16 25 1014.1 1012.7 0.0
24/04:00pm 17.2 10.4 6.7 50 5.3 WSW 32 52 17 28 1014.1 1012.7 0.0
24/03:30pm 17.2 11.1 8.1 55 4.8 WSW 30 56 16 30 1014.2 1012.8 0.0
24/03:03pm 18.2 12.7 9.3 56 4.8 WSW 28 48 15 26 1013.9 1012.5 0.0
24/03:00pm 17.8 12.3 9.2 57 4.6 WSW 28 43 15 23 1014.0 1012.6 0.0
24/02:30pm 16.3 10.0 9.0 62 3.9 WSW 32 46 17 25 1013.9 1012.5 0.0
24/02:19pm 17.0 11.5 9.2 60 4.2 WSW 28 48 15 26 1013.6 1012.2 0.0
24/02:00pm 15.8 11.2 11.2 74 2.5 WSW 26 41 14 22 1013.9 1012.5 0.0
24/01:33pm 16.7 11.7 11.0 69 3.1 W 28 46 15 25 1013.9 1012.5 0.0
24/01:30pm 17.1 11.7 10.9 67 3.4 W 30 46 16 25 1013.8 1012.4 0.0
24/01:07pm 18.8 13.8 11.1 61 4.3 WSW 28 46 15 25 1013.7 1012.3 0.0
24/01:00pm 17.6 12.1 10.5 63 3.9 WSW 30 44 16 24 1013.6 1012.2 0.0
24/12:39pm 18.2 13.0 10.1 59 4.4 WSW 28 46 15 25 1013.8 1012.4 0.0
24/12:30pm 17.6 11.7 10.5 63 3.9 W 32 44 17 24 1013.5 1012.1 0.0

Other Formats:

Comma delimited format used in spreadsheet applications
http://www.bom.gov.au/fwo/IDS60801/IDS60801.94678.axf

JavaScript Object Notation format (JSON) in row-major order
http://www.bom.gov.au/fwo/IDS60801/IDS60801.94678.json